createdAt,value
2018-04-12T00:00:11.377Z,10.77
2018-04-12T00:01:19.445Z,10.80
2018-04-12T00:02:27.504Z,10.83
2018-04-12T00:03:35.567Z,10.87
2018-04-12T00:04:43.620Z,10.98
2018-04-12T00:05:51.710Z,10.89
2018-04-12T00:06:59.744Z,10.87
2018-04-12T00:08:08.860Z,10.82
2018-04-12T00:09:15.880Z,10.90
2018-04-12T00:10:23.922Z,10.83
2018-04-12T00:11:32.009Z,10.82
2018-04-12T00:12:40.079Z,10.89
2018-04-12T00:13:48.140Z,10.87
2018-04-12T00:14:56.201Z,10.92
2018-04-12T00:16:04.250Z,10.82
2018-04-12T00:17:12.307Z,10.82
2018-04-12T00:18:20.384Z,11.01
2018-04-12T00:19:28.454Z,10.97
2018-04-12T00:20:36.513Z,10.97
2018-04-12T00:21:44.563Z,11.01
2018-04-12T00:22:52.635Z,11.02
2018-04-12T00:24:00.679Z,10.97
2018-04-12T00:25:08.770Z,11.05
2018-04-12T00:26:16.827Z,11.05
2018-04-12T00:27:24.889Z,10.98
2018-04-12T00:28:32.972Z,10.98
2018-04-12T00:29:40.994Z,10.90
2018-04-12T00:30:49.068Z,10.90
2018-04-12T00:31:57.145Z,11.02
2018-04-12T00:33:05.499Z,11.00
2018-04-12T00:34:13.271Z,10.82
2018-04-12T00:35:21.295Z,10.80
2018-04-12T00:36:29.392Z,10.83
2018-04-12T00:37:37.446Z,10.80
2018-04-12T00:38:45.557Z,10.83
2018-04-12T00:39:53.593Z,10.84
2018-04-12T00:41:01.618Z,10.76
2018-04-12T00:42:09.706Z,10.76
2018-04-12T00:43:17.777Z,10.67
2018-04-12T00:44:25.825Z,10.79
2018-04-12T00:45:33.889Z,10.68
2018-04-12T00:46:41.961Z,10.67
2018-04-12T00:47:50.011Z,10.62
2018-04-12T00:48:58.089Z,10.67
2018-04-12T00:50:06.148Z,10.61
2018-04-12T00:51:14.251Z,10.67
2018-04-12T00:52:22.284Z,10.59
2018-04-12T00:53:30.326Z,10.64
2018-04-12T00:54:38.395Z,10.58
2018-04-12T00:55:46.449Z,10.57
2018-04-12T00:56:54.509Z,10.57
2018-04-12T00:58:02.590Z,10.51
2018-04-12T00:59:10.660Z,10.55
2018-04-12T01:00:18.706Z,10.43
2018-04-12T01:01:26.763Z,10.38
2018-04-12T01:02:34.840Z,10.42
2018-04-12T01:03:42.915Z,10.23
2018-04-12T01:04:50.958Z,10.36
2018-04-12T01:05:59.030Z,10.28
2018-04-12T01:07:07.102Z,10.27
2018-04-12T01:08:15.153Z,10.13
2018-04-12T01:09:23.206Z,10.10
2018-04-12T01:10:31.251Z,10.13
2018-04-12T01:11:39.334Z,10.17
2018-04-12T01:12:47.405Z,10.05
2018-04-12T01:13:55.460Z,10.09
2018-04-12T01:15:03.530Z,10.06
2018-04-12T01:16:11.559Z,10.00
2018-04-12T01:17:19.655Z,10.03
2018-04-12T01:18:27.714Z,10.10
2018-04-12T01:19:35.774Z,10.12
2018-04-12T01:20:43.840Z,10.12
2018-04-12T01:21:51.902Z,10.09
2018-04-12T01:22:59.957Z,10.18
2018-04-12T01:24:08.026Z,10.17
2018-04-12T01:25:16.086Z,10.13
2018-04-12T01:26:24.147Z,10.13
2018-04-12T01:27:32.216Z,10.17
2018-04-12T01:28:40.281Z,10.18
2018-04-12T01:29:48.345Z,10.20
2018-04-12T01:30:56.405Z,10.15
2018-04-12T01:32:04.462Z,10.17
2018-04-12T01:33:12.532Z,10.12
2018-04-12T01:34:20.582Z,10.10
2018-04-12T01:35:28.655Z,10.06
2018-04-12T01:36:36.697Z,10.00
2018-04-12T01:37:44.774Z,10.02
2018-04-12T01:38:52.857Z,10.00
2018-04-12T01:40:00.887Z,9.95
2018-04-12T01:41:08.973Z,9.97
2018-04-12T01:42:17.030Z,9.94
2018-04-12T01:43:25.089Z,9.94
2018-04-12T01:44:33.146Z,9.85
2018-04-12T01:45:41.185Z,9.84
2018-04-12T01:46:49.277Z,9.84
2018-04-12T01:47:57.335Z,9.74
2018-04-12T01:49:05.405Z,9.74
2018-04-12T01:50:13.458Z,9.81
2018-04-12T01:51:21.491Z,9.76
2018-04-12T01:52:29.581Z,9.77
2018-04-12T01:53:37.685Z,9.73
2018-04-12T01:54:45.712Z,9.77
2018-04-12T01:55:53.780Z,9.76
2018-04-12T01:57:01.834Z,9.82
2018-04-12T01:58:09.907Z,9.81
2018-04-12T01:59:18.028Z,9.76
2018-04-12T02:00:26.025Z,9.80
2018-04-12T02:01:34.088Z,9.84
2018-04-12T02:02:42.321Z,9.69
2018-04-12T02:03:50.215Z,9.69
2018-04-12T02:04:58.296Z,9.82
2018-04-12T02:06:06.334Z,9.73
2018-04-12T02:07:14.401Z,9.73
2018-04-12T02:08:22.454Z,9.88
2018-04-12T02:09:30.828Z,9.87
2018-04-12T02:10:38.896Z,9.85
2018-04-12T02:11:46.651Z,9.87
2018-04-12T02:12:54.727Z,10.02
2018-04-12T02:14:02.784Z,10.00
2018-04-12T02:15:10.818Z,10.03
2018-04-12T02:16:18.902Z,9.95
2018-04-12T02:17:26.966Z,9.84
2018-04-12T02:18:35.015Z,9.88
2018-04-12T02:19:43.082Z,9.90
2018-04-12T02:20:51.132Z,9.85
2018-04-12T02:21:59.205Z,9.90
2018-04-12T02:23:07.274Z,9.87
2018-04-12T02:24:15.337Z,9.85
2018-04-12T02:25:23.395Z,9.87
2018-04-12T02:26:31.458Z,9.76
2018-04-12T02:27:39.515Z,9.81
2018-04-12T02:28:47.588Z,9.77
2018-04-12T02:29:55.647Z,9.74
2018-04-12T02:31:03.699Z,9.85
2018-04-12T02:32:11.808Z,9.88
2018-04-12T02:33:19.846Z,9.88
2018-04-12T02:34:27.896Z,9.77
2018-04-12T02:35:35.966Z,9.77
2018-04-12T02:36:44.021Z,9.81
2018-04-12T02:37:52.102Z,9.77
2018-04-12T02:39:00.138Z,9.94
2018-04-12T02:40:08.213Z,9.87
2018-04-12T02:41:16.261Z,9.76
2018-04-12T02:42:24.338Z,9.81
2018-04-12T02:43:32.395Z,9.69
2018-04-12T02:44:40.455Z,9.77
2018-04-12T02:45:48.521Z,9.73
2018-04-12T02:46:56.593Z,9.87
2018-04-12T02:48:04.658Z,9.76
2018-04-12T02:49:12.710Z,9.73
2018-04-12T02:50:20.766Z,9.85
2018-04-12T02:51:28.841Z,9.76
2018-04-12T02:52:36.895Z,9.77
2018-04-12T02:53:44.972Z,9.69
2018-04-12T02:54:53.034Z,9.84
2018-04-12T02:56:01.063Z,9.84
2018-04-12T02:57:09.142Z,9.85
2018-04-12T02:58:17.212Z,9.87
2018-04-12T02:59:25.290Z,9.87
2018-04-12T03:00:33.335Z,9.87
2018-04-12T03:01:41.373Z,9.90
2018-04-12T03:02:49.461Z,9.88
2018-04-12T03:03:57.522Z,9.77
2018-04-12T03:05:05.600Z,9.87
2018-04-12T03:06:13.641Z,9.88
2018-04-12T03:07:21.689Z,9.76
2018-04-12T03:08:29.778Z,9.80
2018-04-12T03:09:37.842Z,9.76
2018-04-12T03:10:45.898Z,9.80
2018-04-12T03:11:53.960Z,9.74
2018-04-12T03:13:02.013Z,9.66
2018-04-12T03:14:10.094Z,9.74
2018-04-12T03:15:18.144Z,9.66
2018-04-12T03:16:26.218Z,9.73
2018-04-12T03:17:34.277Z,9.63
2018-04-12T03:18:42.326Z,9.52
2018-04-12T03:19:50.396Z,9.44
2018-04-12T03:20:58.467Z,9.34
2018-04-12T03:22:06.530Z,9.27
2018-04-12T03:23:14.598Z,9.18
2018-04-12T03:24:22.635Z,9.13
2018-04-12T03:25:30.698Z,9.12
2018-04-12T03:26:38.780Z,9.00
2018-04-12T03:27:46.837Z,8.92
2018-04-12T03:28:54.894Z,8.82
2018-04-12T03:30:02.963Z,8.82
2018-04-12T03:31:11.000Z,8.78
2018-04-12T03:32:19.082Z,8.68
2018-04-12T03:33:27.147Z,8.63
2018-04-12T03:34:35.205Z,8.61
2018-04-12T03:35:43.269Z,8.61
2018-04-12T03:36:51.307Z,8.60
2018-04-12T03:37:59.406Z,8.41
2018-04-12T03:39:07.468Z,8.44
2018-04-12T03:40:15.519Z,8.39
2018-04-12T03:41:23.592Z,8.27
2018-04-12T03:42:31.624Z,8.24
2018-04-12T03:43:39.719Z,8.13
2018-04-12T03:44:47.768Z,8.20
2018-04-12T03:45:55.847Z,8.11
2018-04-12T03:47:03.957Z,8.16
2018-04-12T03:48:11.966Z,8.11
2018-04-12T03:49:20.053Z,8.13
2018-04-12T03:50:28.105Z,8.01
2018-04-12T03:51:36.153Z,8.06
2018-04-12T03:52:44.210Z,8.11
2018-04-12T03:53:52.266Z,7.96
2018-04-12T03:55:00.311Z,7.90
2018-04-12T03:56:08.395Z,7.81
2018-04-12T03:57:16.455Z,7.67
2018-04-12T03:58:24.503Z,7.69
2018-04-12T03:59:32.566Z,7.59
2018-04-12T04:00:40.621Z,7.59
2018-04-12T04:01:48.751Z,7.58
2018-04-12T04:02:56.761Z,7.48
2018-04-12T04:04:04.817Z,7.43
2018-04-12T04:05:12.896Z,7.40
2018-04-12T04:06:20.937Z,7.26
2018-04-12T04:07:29.010Z,7.28
2018-04-12T04:08:37.048Z,7.26
2018-04-12T04:09:45.125Z,7.25
2018-04-12T04:10:53.190Z,7.15
2018-04-12T04:12:01.225Z,7.13
2018-04-12T04:13:09.311Z,7.07
2018-04-12T04:14:17.375Z,7.10
2018-04-12T04:15:25.452Z,7.14
2018-04-12T04:16:33.506Z,7.00
2018-04-12T04:17:41.544Z,7.07
2018-04-12T04:18:49.633Z,7.10
2018-04-12T04:19:57.680Z,7.13
2018-04-12T04:21:05.742Z,7.19
2018-04-12T04:22:13.809Z,7.18
2018-04-12T04:23:21.857Z,7.22
2018-04-12T04:24:29.931Z,7.07
2018-04-12T04:25:37.991Z,7.14
2018-04-12T04:26:46.056Z,7.03
2018-04-12T04:27:54.108Z,7.00
2018-04-12T04:29:02.187Z,6.93
2018-04-12T04:30:10.233Z,6.90
2018-04-12T04:31:18.303Z,6.83
2018-04-12T04:32:26.384Z,6.71
2018-04-12T04:33:34.423Z,6.77
2018-04-12T04:34:42.483Z,6.72
2018-04-12T04:35:50.556Z,6.67
2018-04-12T04:36:58.605Z,6.65
2018-04-12T04:38:06.680Z,6.68
2018-04-12T04:39:14.730Z,6.67
2018-04-12T04:40:22.794Z,6.65
2018-04-12T04:41:30.840Z,6.70
2018-04-12T04:42:38.910Z,6.65
2018-04-12T04:43:46.981Z,6.60
2018-04-12T04:44:55.049Z,6.62
2018-04-12T04:46:03.112Z,6.70
2018-04-12T04:47:11.143Z,6.54
2018-04-12T04:48:19.631Z,6.71
2018-04-12T04:49:27.295Z,6.64
2018-04-12T04:50:35.345Z,6.65
2018-04-12T04:51:43.415Z,6.70
2018-04-12T04:52:51.449Z,6.71
2018-04-12T04:53:59.524Z,6.83
2018-04-12T04:55:07.823Z,6.86
2018-04-12T04:56:15.658Z,7.00
2018-04-12T04:57:24.271Z,6.96
2018-04-12T04:58:31.777Z,7.05
2018-04-12T04:59:40.177Z,7.15
2018-04-12T05:00:47.904Z,7.21
2018-04-12T05:01:55.964Z,7.23
2018-04-12T05:03:04.028Z,7.19
2018-04-12T05:04:12.087Z,7.44
2018-04-12T05:05:20.153Z,7.44
2018-04-12T05:06:28.206Z,7.46
2018-04-12T05:07:36.281Z,7.56
2018-04-12T05:08:44.329Z,7.59
2018-04-12T05:09:52.396Z,7.69
2018-04-12T05:11:00.446Z,7.69
2018-04-12T05:12:08.523Z,7.67
2018-04-12T05:13:16.634Z,7.74
2018-04-12T05:14:24.642Z,7.69
2018-04-12T05:15:32.748Z,7.74
2018-04-12T05:16:40.766Z,7.70
2018-04-12T05:17:48.820Z,7.74
2018-04-12T05:18:56.897Z,7.84
2018-04-12T05:20:04.949Z,7.85
2018-04-12T05:21:13.075Z,7.87
2018-04-12T05:22:21.063Z,7.91
2018-04-12T05:23:29.135Z,7.99
2018-04-12T05:24:37.201Z,7.99
2018-04-12T05:25:45.257Z,8.05
2018-04-12T05:26:53.313Z,8.17
2018-04-12T05:28:01.354Z,8.05
2018-04-12T05:29:09.454Z,8.11
2018-04-12T05:30:17.504Z,8.16
2018-04-12T05:31:25.571Z,8.27
2018-04-12T05:32:33.640Z,8.60
2018-04-12T05:33:41.687Z,9.03
2018-04-12T05:34:49.782Z,9.13
2018-04-12T05:35:57.831Z,9.15
2018-04-12T05:37:05.880Z,9.03
2018-04-12T05:38:13.949Z,9.05
2018-04-12T05:39:22.006Z,9.05
2018-04-12T05:40:30.074Z,9.13
2018-04-12T05:41:38.139Z,9.19
2018-04-12T05:42:46.212Z,9.24
2018-04-12T05:43:54.275Z,9.21
2018-04-12T05:45:02.336Z,9.31
2018-04-12T05:46:10.384Z,9.39
2018-04-12T05:47:18.451Z,9.40
2018-04-12T05:48:26.504Z,9.52
2018-04-12T05:49:34.569Z,9.58
2018-04-12T05:50:42.638Z,9.63
2018-04-12T05:51:50.695Z,9.81
2018-04-12T05:52:58.772Z,9.97
2018-04-12T05:54:06.835Z,10.15
2018-04-12T05:55:14.911Z,10.41
2018-04-12T05:56:22.959Z,10.57
2018-04-12T05:57:31.003Z,10.59
2018-04-12T05:58:39.076Z,10.65
2018-04-12T05:59:47.155Z,10.65
2018-04-12T06:00:55.221Z,10.72
2018-04-12T06:02:03.280Z,10.80
2018-04-12T06:03:11.334Z,10.76
2018-04-12T06:04:19.403Z,10.79
2018-04-12T06:05:27.467Z,10.79
2018-04-12T06:06:35.525Z,10.77
2018-04-12T06:07:43.603Z,10.76
2018-04-12T06:08:51.628Z,10.76
2018-04-12T06:09:59.732Z,10.76
2018-04-12T06:11:07.792Z,10.83
2018-04-12T06:12:15.878Z,10.83
2018-04-12T06:13:23.918Z,10.84
2018-04-12T06:14:31.986Z,10.75
2018-04-12T06:15:40.058Z,10.79
2018-04-12T06:16:48.116Z,10.79
2018-04-12T06:17:56.166Z,10.86
2018-04-12T06:19:04.270Z,10.90
2018-04-12T06:20:12.302Z,10.95
2018-04-12T06:21:20.379Z,10.86
2018-04-12T06:22:28.443Z,10.80
2018-04-12T06:23:36.504Z,10.76
2018-04-12T06:24:44.578Z,10.83
2018-04-12T06:25:52.644Z,10.86
2018-04-12T06:27:00.711Z,10.86
2018-04-12T06:28:08.774Z,10.82
2018-04-12T06:29:16.825Z,10.87
2018-04-12T06:30:24.894Z,10.92
2018-04-12T06:31:32.953Z,10.97
2018-04-12T06:32:41.004Z,11.00
2018-04-12T06:33:49.139Z,11.00
2018-04-12T06:34:57.152Z,11.00
2018-04-12T06:36:05.208Z,11.02
2018-04-12T06:37:13.276Z,11.13
2018-04-12T06:38:21.327Z,11.22
2018-04-12T06:39:29.402Z,11.34
2018-04-12T06:40:37.478Z,11.43
2018-04-12T06:41:45.545Z,11.45
2018-04-12T06:42:53.600Z,11.52
2018-04-12T06:44:01.647Z,11.58
2018-04-12T06:45:09.732Z,11.62
2018-04-12T06:46:17.833Z,11.63
2018-04-12T06:47:25.869Z,11.89
2018-04-12T06:48:33.933Z,12.26
2018-04-12T06:49:41.998Z,12.33
2018-04-12T06:50:50.058Z,12.55
2018-04-12T06:51:58.138Z,12.88
2018-04-12T06:53:06.184Z,13.05
2018-04-12T06:54:14.265Z,13.31
2018-04-12T06:55:22.325Z,13.43
2018-04-12T06:56:30.399Z,13.54
2018-04-12T06:57:38.467Z,13.82
2018-04-12T06:58:46.520Z,13.91
2018-04-12T06:59:54.604Z,13.97
2018-04-12T07:01:02.663Z,14.11
2018-04-12T07:02:10.723Z,14.28
2018-04-12T07:03:18.821Z,14.55
2018-04-12T07:04:26.862Z,15.05
2018-04-12T07:05:34.923Z,15.55
2018-04-12T07:06:42.986Z,16.10
2018-04-12T07:07:51.042Z,16.65
2018-04-12T07:08:59.113Z,17.13
2018-04-12T07:10:07.202Z,17.07
2018-04-12T07:11:15.269Z,16.57
2018-04-12T07:12:23.357Z,16.21
2018-04-12T07:13:31.377Z,15.81
2018-04-12T07:14:39.475Z,15.54
2018-04-12T07:15:47.513Z,15.36
2018-04-12T07:16:55.614Z,15.10
2018-04-12T07:18:03.664Z,14.92
2018-04-12T07:19:11.728Z,14.77
2018-04-12T07:20:19.820Z,14.63
2018-04-12T07:21:27.883Z,14.55
2018-04-12T07:22:35.944Z,14.52
2018-04-12T07:23:44.042Z,14.52
2018-04-12T07:24:52.083Z,15.00
2018-04-12T07:26:00.149Z,15.17
2018-04-12T07:27:08.222Z,15.17
2018-04-12T07:28:16.305Z,15.17
2018-04-12T07:29:24.363Z,14.97
2018-04-12T07:30:32.435Z,14.97
2018-04-12T07:31:40.497Z,14.87
2018-04-12T07:32:48.582Z,14.77
2018-04-12T07:33:56.640Z,14.52
2018-04-12T07:35:04.735Z,14.43
2018-04-12T07:36:12.768Z,14.25
2018-04-12T07:37:20.831Z,14.18
2018-04-12T07:38:28.909Z,14.30
2018-04-12T07:39:36.975Z,14.19
2018-04-12T07:40:45.045Z,14.11
2018-04-12T07:41:53.109Z,13.98
2018-04-12T07:43:01.170Z,13.86
2018-04-12T07:44:09.236Z,14.01
2018-04-12T07:45:17.303Z,13.89
2018-04-12T07:46:25.389Z,14.04
2018-04-12T07:47:33.457Z,14.11
2018-04-12T07:48:41.496Z,14.20
2018-04-12T07:49:49.585Z,14.22
2018-04-12T07:50:57.660Z,14.26
2018-04-12T07:52:05.721Z,14.41
2018-04-12T07:53:13.780Z,14.51
2018-04-12T07:54:21.849Z,14.48
2018-04-12T07:55:29.921Z,14.41
2018-04-12T07:56:38.041Z,14.55
2018-04-12T07:57:46.068Z,14.55
2018-04-12T07:58:54.128Z,14.59
2018-04-12T08:00:02.198Z,14.63
2018-04-12T08:01:10.262Z,14.63
2018-04-12T08:02:18.330Z,14.67
2018-04-12T08:03:26.399Z,14.61
2018-04-12T08:04:34.469Z,14.53
2018-04-12T08:05:42.525Z,14.52
2018-04-12T08:06:50.596Z,14.53
2018-04-12T08:07:58.666Z,14.62
2018-04-12T08:09:06.727Z,14.52
2018-04-12T08:10:14.805Z,14.49
2018-04-12T08:11:22.867Z,14.67
2018-04-12T08:12:30.936Z,14.59
2018-04-12T08:13:39.005Z,14.66
2018-04-12T08:14:47.077Z,14.74
2018-04-12T08:15:55.142Z,14.89
2018-04-12T08:17:03.201Z,14.99
2018-04-12T08:18:11.248Z,14.99
2018-04-12T08:19:19.341Z,15.14
2018-04-12T08:20:27.416Z,15.23
2018-04-12T08:21:35.484Z,15.35
2018-04-12T08:22:43.539Z,15.54
2018-04-12T08:23:51.622Z,15.65
2018-04-12T08:24:59.680Z,15.70
2018-04-12T08:26:07.747Z,15.73
2018-04-12T08:27:15.819Z,15.84
2018-04-12T08:28:23.896Z,15.87
2018-04-12T08:29:31.956Z,15.66
2018-04-12T08:30:40.022Z,15.65
2018-04-12T08:31:48.093Z,15.67
2018-04-12T08:32:56.159Z,15.63
2018-04-12T08:34:04.234Z,15.62
2018-04-12T08:35:12.291Z,15.75
2018-04-12T08:36:20.362Z,15.80
2018-04-12T08:37:28.440Z,15.75
2018-04-12T08:38:36.498Z,15.87
2018-04-12T08:39:44.567Z,15.70
2018-04-12T08:40:52.651Z,15.81
2018-04-12T08:42:00.705Z,15.87
2018-04-12T08:43:08.794Z,15.94
2018-04-12T08:44:16.856Z,16.08
2018-04-12T08:45:24.909Z,16.22
2018-04-12T08:46:32.996Z,16.21
2018-04-12T08:47:41.020Z,16.18
2018-04-12T08:48:49.135Z,16.21
2018-04-12T08:49:57.183Z,16.21
2018-04-12T08:51:05.273Z,16.22
2018-04-12T08:52:13.325Z,16.37
2018-04-12T08:53:21.373Z,16.34
2018-04-12T08:54:29.467Z,16.43
2018-04-12T08:55:37.537Z,16.41
2018-04-12T08:56:45.606Z,16.49
2018-04-12T08:57:53.679Z,16.69
2018-04-12T08:59:01.728Z,16.97
2018-04-12T09:00:09.809Z,17.12
2018-04-12T09:01:17.892Z,17.13
2018-04-12T09:02:25.959Z,17.16
2018-04-12T09:03:34.025Z,17.30
2018-04-12T09:04:42.092Z,17.23
2018-04-12T09:05:50.155Z,17.20
2018-04-12T09:06:58.229Z,17.28
2018-04-12T09:08:06.298Z,17.31
2018-04-12T09:09:14.372Z,17.39
2018-04-12T09:10:22.454Z,17.34
2018-04-12T09:11:30.516Z,17.42
2018-04-12T09:12:38.596Z,17.53
2018-04-12T09:13:46.664Z,17.42
2018-04-12T09:14:54.722Z,17.59
2018-04-12T09:16:02.790Z,17.71
2018-04-12T09:17:10.863Z,17.78
2018-04-12T09:18:18.935Z,17.78
2018-04-12T09:19:27.012Z,17.82
2018-04-12T09:20:35.076Z,17.91
2018-04-12T09:21:43.144Z,17.94
2018-04-12T09:22:51.204Z,17.72
2018-04-12T09:23:59.280Z,17.72
2018-04-12T09:25:07.353Z,17.52
2018-04-12T09:26:15.425Z,17.53
2018-04-12T09:27:23.503Z,17.56
2018-04-12T09:28:31.549Z,17.57
2018-04-12T09:29:39.645Z,17.73
2018-04-12T09:30:47.716Z,17.79
2018-04-12T09:31:55.789Z,17.93
2018-04-12T09:33:03.846Z,18.03
2018-04-12T09:34:11.934Z,18.02
2018-04-12T09:35:19.998Z,18.09
2018-04-12T09:36:28.068Z,18.19
2018-04-12T09:37:36.141Z,18.24
2018-04-12T09:38:44.230Z,18.23
2018-04-12T09:39:52.275Z,18.21
2018-04-12T09:41:00.347Z,18.16
2018-04-12T09:42:08.413Z,18.33
2018-04-12T09:43:16.523Z,18.33
2018-04-12T09:44:24.561Z,18.43
2018-04-12T09:45:32.640Z,18.21
2018-04-12T09:46:40.711Z,18.08
2018-04-12T09:47:48.783Z,18.28
2018-04-12T09:48:56.832Z,18.28
2018-04-12T09:50:04.922Z,18.48
2018-04-12T09:51:12.991Z,18.46
2018-04-12T09:52:21.051Z,18.61
2018-04-12T09:53:29.133Z,18.31
2018-04-12T09:54:37.229Z,18.43
2018-04-12T09:55:45.288Z,18.21
2018-04-12T09:56:53.352Z,18.43
2018-04-12T09:58:01.438Z,18.57
2018-04-12T09:59:09.487Z,18.64
2018-04-12T10:00:17.560Z,18.58
2018-04-12T10:01:25.628Z,18.68
2018-04-12T10:02:33.709Z,18.92
2018-04-12T10:03:41.770Z,18.96
2018-04-12T10:04:49.840Z,18.89
2018-04-12T10:05:57.949Z,18.97
2018-04-12T10:07:05.989Z,18.92
2018-04-12T10:08:14.057Z,18.92
2018-04-12T10:09:22.138Z,18.82
2018-04-12T10:10:30.216Z,18.83
2018-04-12T10:11:38.288Z,18.76
2018-04-12T10:12:46.359Z,18.48
2018-04-12T10:13:54.429Z,18.33
2018-04-12T10:15:02.516Z,18.45
2018-04-12T10:16:10.550Z,18.34
2018-04-12T10:17:18.756Z,18.53
2018-04-12T10:18:26.708Z,18.52
2018-04-12T10:19:34.776Z,18.71
2018-04-12T10:20:42.851Z,18.78
2018-04-12T10:21:50.911Z,18.94
2018-04-12T10:22:58.988Z,18.92
2018-04-12T10:24:07.061Z,19.00
2018-04-12T10:25:15.137Z,19.05
2018-04-12T10:26:23.204Z,19.15
2018-04-12T10:27:31.256Z,19.27
2018-04-12T10:28:39.329Z,19.29
2018-04-12T10:29:47.414Z,19.24
2018-04-12T10:30:55.483Z,19.09
2018-04-12T10:32:03.563Z,18.91
2018-04-12T10:33:11.900Z,18.76
2018-04-12T10:34:20.381Z,18.71
2018-04-12T10:35:27.768Z,18.82
2018-04-12T10:36:35.855Z,18.61
2018-04-12T10:37:43.903Z,18.55
2018-04-12T10:38:52.006Z,18.55
2018-04-12T10:40:00.072Z,18.45
2018-04-12T10:41:08.127Z,18.68
2018-04-12T10:42:16.209Z,18.71
2018-04-12T10:43:24.291Z,18.73
2018-04-12T10:44:32.345Z,18.67
2018-04-12T10:45:40.403Z,18.71
2018-04-12T10:46:48.522Z,18.76
2018-04-12T10:47:56.552Z,18.71
2018-04-12T10:49:04.609Z,18.76
2018-04-12T10:50:12.717Z,18.82
2018-04-12T10:51:20.760Z,19.00
2018-04-12T10:52:28.846Z,19.00
2018-04-12T10:53:36.903Z,18.74
2018-04-12T10:54:44.970Z,18.55
2018-04-12T10:55:53.046Z,18.57
2018-04-12T10:57:01.098Z,18.31
2018-04-12T10:58:09.197Z,18.36
2018-04-12T10:59:17.293Z,18.48
2018-04-12T11:00:25.322Z,18.36
2018-04-12T11:01:33.392Z,18.36
2018-04-12T11:02:41.439Z,18.45
2018-04-12T11:03:49.546Z,18.52
2018-04-12T11:04:57.617Z,18.64
2018-04-12T11:06:05.684Z,18.73
2018-04-12T11:07:13.743Z,18.63
2018-04-12T11:08:21.799Z,18.76
2018-04-12T11:09:29.899Z,18.52
2018-04-12T11:10:37.962Z,18.64
2018-04-12T11:11:46.015Z,18.71
2018-04-12T11:12:54.099Z,18.73
2018-04-12T11:14:02.161Z,18.96
2018-04-12T11:15:10.230Z,18.94
2018-04-12T11:16:18.302Z,18.73
2018-04-12T11:17:26.372Z,18.74
2018-04-12T11:18:34.436Z,18.74
2018-04-12T11:19:42.513Z,18.78
2018-04-12T11:20:50.586Z,18.76
2018-04-12T11:21:58.652Z,18.97
2018-04-12T11:23:06.714Z,18.78
2018-04-12T11:24:14.815Z,19.08
2018-04-12T11:25:22.865Z,19.11
2018-04-12T11:26:30.918Z,19.23
2018-04-12T11:27:39.000Z,19.23
2018-04-12T11:28:47.069Z,19.35
2018-04-12T11:29:55.139Z,19.59
2018-04-12T11:31:03.201Z,19.63
2018-04-12T11:32:11.244Z,19.49
2018-04-12T11:33:19.339Z,19.67
2018-04-12T11:34:27.414Z,19.63
2018-04-12T11:35:35.489Z,19.52
2018-04-12T11:36:43.540Z,19.49
2018-04-12T11:37:51.640Z,19.66
2018-04-12T11:38:59.697Z,19.52
2018-04-12T11:40:07.763Z,19.57
2018-04-12T11:41:15.836Z,19.72
2018-04-12T11:42:23.889Z,19.89
2018-04-12T11:43:31.967Z,20.02
2018-04-12T11:44:40.028Z,20.15
2018-04-12T11:45:48.101Z,20.26
2018-04-12T11:46:56.197Z,20.22
2018-04-12T11:48:04.253Z,19.82
2018-04-12T11:49:12.326Z,19.89
2018-04-12T11:50:20.398Z,20.02
2018-04-12T11:51:28.461Z,19.66
2018-04-12T11:52:36.531Z,19.70
2018-04-12T11:53:44.596Z,19.60
2018-04-12T11:54:52.684Z,19.75
2018-04-12T11:56:00.806Z,19.89
2018-04-12T11:57:08.827Z,20.00
2018-04-12T11:58:16.885Z,19.93
2018-04-12T11:59:24.959Z,20.03
2018-04-12T12:00:33.022Z,20.00
2018-04-12T12:01:41.096Z,20.00
2018-04-12T12:02:49.161Z,19.77
2018-04-12T12:03:57.238Z,19.74
2018-04-12T12:05:05.293Z,19.70
2018-04-12T12:06:13.370Z,19.64
2018-04-12T12:07:21.414Z,19.47
2018-04-12T12:08:29.507Z,19.44
2018-04-12T12:09:37.612Z,19.53
2018-04-12T12:10:45.655Z,19.67
2018-04-12T12:11:53.729Z,19.94
2018-04-12T12:13:01.795Z,20.04
2018-04-12T12:14:09.868Z,20.21
2018-04-12T12:15:17.929Z,20.30
2018-04-12T12:16:26.007Z,20.12
2018-04-12T12:17:34.134Z,20.21
2018-04-12T12:18:42.141Z,20.40
2018-04-12T12:19:50.213Z,20.37
2018-04-12T12:20:58.302Z,20.34
2018-04-12T12:22:06.360Z,20.29
2018-04-12T12:23:14.435Z,20.27
2018-04-12T12:24:22.495Z,19.92
2018-04-12T12:25:30.572Z,19.66
2018-04-12T12:26:38.645Z,19.41
2018-04-12T12:27:46.720Z,19.44
2018-04-12T12:28:54.822Z,19.26
2018-04-12T12:30:02.863Z,19.27
2018-04-12T12:31:10.911Z,19.27
2018-04-12T12:32:18.993Z,19.44
2018-04-12T12:33:27.077Z,19.57
2018-04-12T12:34:35.133Z,19.67
2018-04-12T12:35:43.202Z,19.72
2018-04-12T12:36:51.258Z,20.14
2018-04-12T12:37:59.348Z,20.18
2018-04-12T12:39:07.428Z,20.17
2018-04-12T12:40:15.499Z,20.26
2018-04-12T12:41:23.563Z,20.11
2018-04-12T12:42:31.613Z,19.89
2018-04-12T12:43:39.702Z,19.93
2018-04-12T12:44:47.802Z,20.24
2018-04-12T12:45:55.917Z,20.22
2018-04-12T12:47:03.916Z,20.30
2018-04-12T12:48:11.987Z,20.22
2018-04-12T12:49:20.055Z,20.19
2018-04-12T12:50:28.140Z,19.82
2018-04-12T12:51:36.226Z,19.97
2018-04-12T12:52:44.279Z,20.04
2018-04-12T12:53:52.330Z,20.17
2018-04-12T12:55:00.412Z,20.27
2018-04-12T12:56:08.537Z,20.11
2018-04-12T12:57:16.567Z,20.19
2018-04-12T12:58:24.638Z,20.42
2018-04-12T12:59:32.698Z,20.49
2018-04-12T13:00:40.776Z,20.52
2018-04-12T13:01:48.835Z,20.67
2018-04-12T13:02:56.918Z,20.56
2018-04-12T13:04:05.002Z,20.50
2018-04-12T13:05:13.075Z,20.49
2018-04-12T13:06:21.115Z,20.49
2018-04-12T13:07:29.202Z,20.70
2018-04-12T13:08:37.282Z,20.68
2018-04-12T13:09:45.351Z,20.70
2018-04-12T13:10:53.432Z,20.67
2018-04-12T13:12:01.469Z,20.85
2018-04-12T13:13:09.579Z,20.88
2018-04-12T13:14:17.622Z,20.92
2018-04-12T13:15:25.700Z,21.03
2018-04-12T13:16:33.780Z,21.17
2018-04-12T13:17:41.850Z,20.98
2018-04-12T13:18:49.931Z,21.01
2018-04-12T13:19:57.993Z,20.95
2018-04-12T13:21:06.099Z,20.92
2018-04-12T13:22:14.143Z,20.80
2018-04-12T13:23:22.199Z,20.78
2018-04-12T13:24:30.284Z,20.68
2018-04-12T13:25:38.349Z,20.63
2018-04-12T13:26:46.420Z,20.63
2018-04-12T13:27:54.507Z,20.55
2018-04-12T13:29:02.567Z,20.68
2018-04-12T13:30:10.636Z,20.64
2018-04-12T13:31:18.717Z,20.42
2018-04-12T13:32:26.899Z,20.49
2018-04-12T13:33:34.871Z,20.60
2018-04-12T13:34:42.927Z,20.67
2018-04-12T13:35:50.970Z,20.82
2018-04-12T13:36:59.065Z,20.73
2018-04-12T13:38:07.217Z,20.86
2018-04-12T13:39:15.218Z,20.86
2018-04-12T13:40:23.277Z,21.04
2018-04-12T13:41:31.342Z,21.33
2018-04-12T13:42:39.539Z,21.37
2018-04-12T13:43:47.507Z,21.30
2018-04-12T13:44:55.570Z,21.23
2018-04-12T13:46:03.651Z,21.00
2018-04-12T13:47:11.680Z,21.00
2018-04-12T13:48:19.792Z,20.95
2018-04-12T13:49:27.877Z,20.85
2018-04-12T13:50:35.923Z,20.74
2018-04-12T13:51:44.003Z,20.78
2018-04-12T13:52:52.074Z,20.82
2018-04-12T13:54:00.173Z,20.71
2018-04-12T13:55:08.222Z,20.74
2018-04-12T13:56:16.297Z,20.63
2018-04-12T13:57:24.361Z,20.46
2018-04-12T13:58:32.426Z,20.33
2018-04-12T13:59:40.495Z,20.36
2018-04-12T14:00:48.578Z,20.40
2018-04-12T14:01:56.650Z,20.36
2018-04-12T14:03:04.720Z,20.36
2018-04-12T14:04:12.788Z,20.44
2018-04-12T14:05:20.860Z,20.42
2018-04-12T14:06:28.924Z,20.53
2018-04-12T14:07:36.996Z,20.34
2018-04-12T14:08:45.065Z,20.33
2018-04-12T14:09:53.147Z,20.21
2018-04-12T14:11:01.194Z,20.24
2018-04-12T14:12:09.293Z,20.33
2018-04-12T14:13:17.364Z,20.46
2018-04-12T14:14:25.419Z,20.60
2018-04-12T14:15:33.510Z,20.70
2018-04-12T14:16:41.559Z,20.55
2018-04-12T14:17:49.640Z,20.34
2018-04-12T14:18:57.711Z,20.03
2018-04-12T14:20:05.824Z,19.85
2018-04-12T14:21:13.850Z,19.64
2018-04-12T14:22:21.927Z,19.67
2018-04-12T14:23:29.987Z,19.57
2018-04-12T14:24:38.109Z,19.38
2018-04-12T14:25:46.160Z,19.27
2018-04-12T14:26:54.200Z,19.32
2018-04-12T14:28:02.318Z,19.42
2018-04-12T14:29:10.340Z,19.47
2018-04-12T14:30:18.418Z,19.32
2018-04-12T14:31:26.495Z,19.12
2018-04-12T14:32:34.551Z,19.09
2018-04-12T14:33:42.644Z,19.09
2018-04-12T14:34:50.704Z,19.00
2018-04-12T14:35:58.804Z,18.86
2018-04-12T14:37:06.835Z,18.71
2018-04-12T14:38:14.914Z,18.71
2018-04-12T14:39:22.985Z,18.66
2018-04-12T14:40:31.028Z,18.68
2018-04-12T14:41:39.109Z,18.61
2018-04-12T14:42:47.180Z,18.58
2018-04-12T14:43:55.248Z,18.48